Time;durP1;ratioP1;P1;durP2;ratioP2;P2;SDS_P1;SDS_P2;PMS_P1;PMS_P2;Temp;Humidity;BMP_temperature;BMP_pressure;BME280_temperature;BME280_humidity;BME280_pressure;Samples;Min_cycle;Max_cycle;Signal;HPM_P1;HPM_P2
2022/02/24 00:02:00;;;;;;;;;;;;;;;3.03;77.20;96919.28;5005246;28;20321;-77
2022/02/24 00:04:26;;;;;;;;;;;;;;;3.07;77.17;96914.59;4999529;28;19957;-77
2022/02/24 00:06:52;;;;;;;;;;;;;;;3.08;77.69;96927.38;5009045;28;19954;-75
2022/02/24 00:09:18;;;;;;;;;;;;;;;3.09;77.84;96923.84;5005406;28;19956;-74
2022/02/24 00:11:43;;;;;;;;;;;;;;;3.11;77.61;96916.72;5000990;28;20322;-76
2022/02/24 00:14:09;;;;;;;;;;;;;;;3.12;78.24;96915.72;5006257;28;19957;-76
2022/02/24 00:16:35;;;;;;;;;;;;;;;3.14;78.70;96918.97;5007444;28;19960;-77
2022/02/24 00:19:01;;;;;;;;;;;;;;;3.14;79.32;96915.59;4984545;28;19948;-78
2022/02/24 00:21:27;;;;;;;;;;;;;;;3.15;78.56;96918.03;5000171;28;19962;-75
2022/02/24 00:23:53;;;;;;;;;;;;;;;3.18;78.62;96902.16;5008024;28;19962;-76
2022/02/24 00:26:19;;;;;;;;;;;;;;;3.21;78.24;96893.22;5008228;28;19990;-78
2022/02/24 00:28:44;;;;;;;;;;;;;;;3.22;78.20;96902.66;4995378;28;19964;-78
2022/02/24 00:31:10;;;;;;;;;;;;;;;3.20;78.05;96889.84;5005945;28;20377;-78
2022/02/24 00:33:38;;;;;;;;;;;;;;;3.20;78.37;96896.81;4984661;28;19992;-78
2022/02/24 00:36:05;;;;;;;;;;;;;;;3.21;78.37;96901.00;5004577;28;19959;-78
2022/02/24 00:38:31;;;;;;;;;;;;;;;3.22;78.06;96895.66;5010279;28;19954;-75
2022/02/24 00:40:57;;;;;;;;;;;;;;;3.22;78.58;96894.88;5002757;28;19950;-75
2022/02/24 00:43:23;;;;;;;;;;;;;;;3.24;78.41;96898.13;5003036;28;20442;-75
2022/02/24 00:45:49;;;;;;;;;;;;;;;3.27;78.64;96895.19;5006254;28;19961;-76
2022/02/24 00:48:15;;;;;;;;;;;;;;;3.28;79.44;96901.19;5003684;28;19971;-79
2022/02/24 00:50:41;;;;;;;;;;;;;;;3.26;79.81;96890.97;5004091;28;19969;-76
2022/02/24 00:53:06;;;;;;;;;;;;;;;3.23;80.22;96883.50;5003426;28;19979;-75
2022/02/24 00:55:33;;;;;;;;;;;;;;;3.21;80.10;96883.69;5003266;28;19957;-75
2022/02/24 00:57:59;;;;;;;;;;;;;;;3.20;79.21;96876.88;5004284;28;19959;-75
2022/02/24 01:00:25;;;;;;;;;;;;;;;3.22;79.54;96872.34;5004763;28;20010;-79
2022/02/24 01:02:51;;;;;;;;;;;;;;;3.23;79.55;96878.34;5000233;28;19951;-78
2022/02/24 01:05:16;;;;;;;;;;;;;;;3.21;80.44;96878.50;5004824;28;20472;-79
2022/02/24 01:07:42;;;;;;;;;;;;;;;3.20;79.28;96876.06;5004107;28;20026;-76
2022/02/24 01:10:09;;;;;;;;;;;;;;;3.20;79.42;96874.28;5003906;28;19983;-77
2022/02/24 01:12:36;;;;;;;;;;;;;;;3.22;78.78;96864.56;5002960;28;19951;-76
2022/02/24 01:15:09;;;;;;;;;;;;;;;3.25;78.70;96863.44;5004445;28;19959;-77
2022/02/24 01:17:36;;;;;;;;;;;;;;;3.27;78.86;96865.88;5003188;28;19958;-77
2022/02/24 01:20:03;;;;;;;;;;;;;;;3.27;78.41;96869.25;5002319;28;20357;-75
2022/02/24 01:22:29;;;;;;;;;;;;;;;3.30;78.45;96857.75;5005488;28;19956;-74
2022/02/24 01:24:55;;;;;;;;;;;;;;;3.30;78.54;96860.34;5008913;28;19953;-75
2022/02/24 01:27:21;;;;;;;;;;;;;;;3.30;78.32;96866.38;4979854;28;19983;-78
2022/02/24 01:29:46;;;;;;;;;;;;;;;3.31;78.02;96860.19;5005443;28;20340;-77
2022/02/24 01:32:12;;;;;;;;;;;;;;;3.30;77.77;96855.16;5005258;28;20075;-78
2022/02/24 01:34:38;;;;;;;;;;;;;;;3.30;77.65;96849.97;5011474;28;19951;-75
2022/02/24 01:37:04;;;;;;;;;;;;;;;3.28;77.57;96852.75;5007152;28;20010;-75
2022/02/24 01:39:30;;;;;;;;;;;;;;;3.28;77.48;96844.97;5002532;28;19994;-76
2022/02/24 01:41:56;;;;;;;;;;;;;;;3.27;77.61;96848.53;5007314;28;20337;-76
2022/02/24 01:44:23;;;;;;;;;;;;;;;3.24;77.24;96836.72;5011391;28;20018;-76
2022/02/24 01:46:49;;;;;;;;;;;;;;;3.22;77.58;96835.25;5009884;28;19973;-76
2022/02/24 01:49:16;;;;;;;;;;;;;;;3.19;77.20;96827.78;5006677;28;19965;-77
2022/02/24 01:51:41;;;;;;;;;;;;;;;3.17;77.36;96824.56;5006136;28;19968;-77
2022/02/24 01:54:07;;;;;;;;;;;;;;;3.15;77.42;96832.50;5003971;28;20395;-77
2022/02/24 01:56:34;;;;;;;;;;;;;;;3.14;77.58;96812.72;5017250;28;19964;-78
2022/02/24 01:59:00;;;;;;;;;;;;;;;3.13;77.77;96812.88;5001344;28;19961;-77
2022/02/24 02:01:25;;;;;;;;;;;;;;;3.12;78.22;96814.66;4991983;28;19961;-79
2022/02/24 02:03:54;;;;;;;;;;;;;;;3.11;78.08;96807.88;4995857;28;19960;-78
2022/02/24 02:06:20;;;;;;;;;;;;;;;3.10;78.39;96798.47;5004058;28;19955;-79
2022/02/24 02:08:46;;;;;;;;;;;;;;;3.09;78.34;96794.28;5007940;28;19954;-79
2022/02/24 02:11:12;;;;;;;;;;;;;;;3.09;78.45;96793.44;5000206;28;19986;-78
2022/02/24 02:13:38;;;;;;;;;;;;;;;3.08;78.65;96786.66;5011780;28;19971;-79
2022/02/24 02:16:04;;;;;;;;;;;;;;;3.07;78.29;96785.03;5008184;28;20004;-79
2022/02/24 02:18:30;;;;;;;;;;;;;;;3.04;78.25;96779.22;5002567;28;20409;-78
2022/02/24 02:20:56;;;;;;;;;;;;;;;3.05;78.51;96780.84;5010527;28;20015;-78
2022/02/24 02:23:22;;;;;;;;;;;;;;;3.07;78.20;96779.84;4998657;28;19999;-78
2022/02/24 02:25:47;;;;;;;;;;;;;;;3.07;78.31;96777.25;5007013;28;19957;-78
2022/02/24 02:28:15;;;;;;;;;;;;;;;3.07;78.45;96774.66;5009745;28;19999;-79
2022/02/24 02:30:41;;;;;;;;;;;;;;;3.05;78.47;96767.06;5004684;28;19976;-78
2022/02/24 02:33:07;;;;;;;;;;;;;;;3.06;78.27;96768.69;5002067;28;19959;-78
2022/02/24 02:35:33;;;;;;;;;;;;;;;3.05;78.80;96767.88;5010698;28;20000;-78
2022/02/24 02:37:59;;;;;;;;;;;;;;;3.05;78.83;96756.72;5009066;28;19953;-78
2022/02/24 02:40:25;;;;;;;;;;;;;;;3.05;79.06;96760.09;4979153;28;19962;-80
2022/02/24 02:42:52;;;;;;;;;;;;;;;3.08;79.32;96756.38;5006554;28;19962;-78
2022/02/24 02:45:18;;;;;;;;;;;;;;;3.09;79.31;96755.41;4988861;28;19955;-78
2022/02/24 02:47:44;;;;;;;;;;;;;;;3.12;79.63;96762.03;5004801;28;19958;-78
2022/02/24 02:50:11;;;;;;;;;;;;;;;3.15;79.91;96753.94;5002206;28;19958;-79
2022/02/24 02:52:37;;;;;;;;;;;;;;;3.16;79.46;96756.38;5006957;28;20448;-79
2022/02/24 02:55:09;;;;;;;;;;;;;;;3.19;79.57;96750.03;5012240;28;19960;-79
2022/02/24 02:57:36;;;;;;;;;;;;;;;3.21;79.41;96753.28;5001913;28;19950;-76
2022/02/24 03:00:07;;;;;;;;;;;;;;;3.23;79.60;96746.16;5006058;28;19959;-75
2022/02/24 03:02:33;;;;;;;;;;;;;;;3.23;79.54;96743.56;5012268;28;19961;-75
2022/02/24 03:04:58;;;;;;;;;;;;;;;3.22;79.83;96734.97;5003113;28;20408;-75
2022/02/24 03:07:25;;;;;;;;;;;;;;;3.23;79.54;96734.03;5006004;28;20003;-75
2022/02/24 03:09:52;;;;;;;;;;;;;;;3.23;79.38;96733.19;5007385;28;19957;-75
2022/02/24 03:12:18;;;;;;;;;;;;;;;3.24;79.64;96719.28;5007341;28;19972;-75
2022/02/24 03:14:44;;;;;;;;;;;;;;;3.24;79.54;96716.69;5005360;28;19954;-77
2022/02/24 03:17:10;;;;;;;;;;;;;;;3.23;79.75;96722.81;5007174;28;20324;-77
2022/02/24 03:19:36;;;;;;;;;;;;;;;3.23;79.49;96722.81;4996950;28;19966;-77
2022/02/24 03:22:05;;;;;;;;;;;;;;;3.23;79.46;96725.41;5006090;28;20311;-77
2022/02/24 03:24:31;;;;;;;;;;;;;;;3.21;79.52;96717.81;5006342;28;19952;-77
2022/02/24 03:26:57;;;;;;;;;;;;;;;3.20;78.96;96717.97;4985330;28;19956;-78
2022/02/24 03:29:23;;;;;;;;;;;;;;;3.19;78.85;96708.56;5002992;28;19956;-75
2022/02/24 03:31:49;;;;;;;;;;;;;;;3.17;78.99;96705.34;5007783;28;20077;-75
2022/02/24 03:34:15;;;;;;;;;;;;;;;3.15;78.81;96712.47;5007480;28;20005;-75
2022/02/24 03:36:41;;;;;;;;;;;;;;;3.14;78.58;96706.47;5003348;28;19997;-75
2022/02/24 03:39:06;;;;;;;;;;;;;;;3.11;78.63;96704.22;5002216;28;20468;-76
2022/02/24 03:41:32;;;;;;;;;;;;;;;3.09;78.27;96705.34;4998591;28;20327;-75
2022/02/24 03:43:58;;;;;;;;;;;;;;;3.06;78.58;96698.72;5006774;28;19988;-79
2022/02/24 03:46:24;;;;;;;;;;;;;;;3.03;78.16;96696.47;5008114;28;19987;-78
2022/02/24 03:48:50;;;;;;;;;;;;;;;3.01;78.19;96699.22;5011859;28;19965;-79
2022/02/24 03:51:16;;;;;;;;;;;;;;;2.97;78.21;96697.94;4999074;28;19965;-78
2022/02/24 03:53:43;;;;;;;;;;;;;;;2.96;78.21;96700.66;5006978;28;20406;-77
2022/02/24 03:56:09;;;;;;;;;;;;;;;2.92;78.28;96692.44;4991108;28;19956;-77
2022/02/24 03:58:35;;;;;;;;;;;;;;;2.89;78.08;96694.53;5000471;28;19971;-77
2022/02/24 04:01:00;;;;;;;;;;;;;;;2.87;77.77;96696.47;5006072;28;19980;-78
2022/02/24 04:03:26;;;;;;;;;;;;;;;2.81;77.76;96688.41;5008676;28;19959;-77
2022/02/24 04:05:52;;;;;;;;;;;;;;;2.80;78.03;96684.19;5001706;28;19979;-76
2022/02/24 04:08:18;;;;;;;;;;;;;;;2.78;78.08;96688.72;5006351;28;19957;-76
2022/02/24 04:10:45;;;;;;;;;;;;;;;2.77;78.32;96691.47;5004723;28;20402;-77
2022/02/24 04:13:11;;;;;;;;;;;;;;;2.75;78.37;96688.22;5004091;28;19959;-76
2022/02/24 04:15:37;;;;;;;;;;;;;;;2.73;78.72;96683.22;5006903;28;20322;-76
2022/02/24 04:18:03;;;;;;;;;;;;;;;2.73;78.68;96678.03;5007438;28;19960;-76
2022/02/24 04:20:29;;;;;;;;;;;;;;;2.74;78.90;96679.66;5001306;28;19954;-77
2022/02/24 04:22:55;;;;;;;;;;;;;;;2.76;79.12;96677.69;5000435;28;20451;-77
2022/02/24 04:25:21;;;;;;;;;;;;;;;2.77;79.04;96671.56;5010426;28;19958;-76
2022/02/24 04:27:48;;;;;;;;;;;;;;;2.77;79.79;96666.38;5004403;28;19989;-77
2022/02/24 04:30:14;;;;;;;;;;;;;;;2.78;79.65;96670.59;5005594;28;19959;-77
2022/02/24 04:32:41;;;;;;;;;;;;;;;2.80;79.85;96660.88;5001972;28;19990;-77
2022/02/24 04:35:08;;;;;;;;;;;;;;;2.83;80.35;96654.53;5002497;28;19953;-77
2022/02/24 04:37:34;;;;;;;;;;;;;;;2.84;80.25;96653.59;5004664;28;19959;-77
2022/02/24 04:39:59;;;;;;;;;;;;;;;2.86;80.52;96649.06;5004372;28;20009;-76
2022/02/24 04:42:25;;;;;;;;;;;;;;;2.87;80.47;96636.91;5004149;28;19960;-76
2022/02/24 04:44:51;;;;;;;;;;;;;;;2.87;80.48;96632.53;5011064;28;19976;-76
2022/02/24 04:47:17;;;;;;;;;;;;;;;2.87;80.32;96627.34;4985637;28;19964;-76
2022/02/24 04:49:43;;;;;;;;;;;;;;;2.87;80.52;96622.16;5003504;28;19960;-76
2022/02/24 04:52:09;;;;;;;;;;;;;;;2.87;80.32;96617.00;5003330;28;20476;-75
2022/02/24 04:54:35;;;;;;;;;;;;;;;2.88;80.49;96622.97;5009441;28;19958;-77
2022/02/24 04:57:01;;;;;;;;;;;;;;;2.87;80.48;96622.16;5004693;28;19957;-76
2022/02/24 04:59:26;;;;;;;;;;;;;;;2.88;80.51;96621.22;4998388;28;20024;-76
2022/02/24 05:01:52;;;;;;;;;;;;;;;2.88;80.89;96616.03;5005442;28;19951;-76
2022/02/24 05:04:18;;;;;;;;;;;;;;;2.88;80.51;96610.84;5009175;28;19999;-76
2022/02/24 05:06:44;;;;;;;;;;;;;;;2.90;80.43;96608.91;5004927;28;19963;-76
2022/02/24 05:09:10;;;;;;;;;;;;;;;2.90;80.62;96608.91;4982594;28;19957;-76
2022/02/24 05:11:36;;;;;;;;;;;;;;;2.90;80.23;96608.06;5001956;28;19984;-77
2022/02/24 05:14:02;;;;;;;;;;;;;;;2.87;80.84;96603.22;5004882;28;19961;-76
2022/02/24 05:16:28;;;;;;;;;;;;;;;2.86;80.82;96602.44;5006893;28;19965;-76
2022/02/24 05:18:53;;;;;;;;;;;;;;;2.85;80.38;96590.44;5005122;28;20339;-76
2022/02/24 05:21:19;;;;;;;;;;;;;;;2.84;80.47;96594.03;4999001;28;20003;-76
2022/02/24 05:23:45;;;;;;;;;;;;;;;2.83;80.54;96590.63;4969652;28;20381;-77
2022/02/24 05:26:11;;;;;;;;;;;;;;;2.83;80.09;96590.63;4990136;28;20067;-77
2022/02/24 05:28:37;;;;;;;;;;;;;;;2.82;80.15;96577.84;5003983;28;19966;-77
2022/02/24 05:31:03;;;;;;;;;;;;;;;2.80;80.28;96583.19;5003218;28;19958;-77
2022/02/24 05:33:29;;;;;;;;;;;;;;;2.78;80.03;96579.13;4984425;28;19962;-77
2022/02/24 05:35:56;;;;;;;;;;;;;;;2.77;80.14;96585.28;5008596;28;19960;-77
2022/02/24 05:38:22;;;;;;;;;;;;;;;2.77;80.46;96577.50;5003069;28;20424;-77
2022/02/24 05:40:48;;;;;;;;;;;;;;;2.79;80.43;96583.34;5001550;28;20326;-79
2022/02/24 05:43:14;;;;;;;;;;;;;;;2.78;80.50;96573.97;5003873;28;20461;-80
2022/02/24 05:45:41;;;;;;;;;;;;;;;2.78;80.20;96574.75;5003318;28;19952;-79
2022/02/24 05:48:07;;;;;;;;;;;;;;;2.76;80.31;96581.88;5004533;28;19958;-80
2022/02/24 05:50:33;;;;;;;;;;;;;;;2.77;80.57;96582.69;5009741;28;19966;-80
2022/02/24 05:53:02;;;;;;;;;;;;;;;2.75;80.49;96575.09;4987115;28;19968;-80
2022/02/24 05:55:29;;;;;;;;;;;;;;;2.74;80.42;96567.50;4998970;28;19960;-79
2022/02/24 05:57:55;;;;;;;;;;;;;;;2.74;79.92;96577.84;5005942;28;19948;-79
2022/02/24 06:00:21;;;;;;;;;;;;;;;2.73;79.93;96568.44;5008366;28;19965;-77
2022/02/24 06:02:47;;;;;;;;;;;;;;;2.72;79.96;96566.84;4999629;28;19999;-79
2022/02/24 06:05:13;;;;;;;;;;;;;;;2.72;79.71;96567.66;5004310;28;20024;-77
2022/02/24 06:07:38;;;;;;;;;;;;;;;2.71;79.76;96571.22;5008618;28;19960;-77
2022/02/24 06:10:05;;;;;;;;;;;;;;;2.70;79.63;96574.78;5006073;28;20009;-78
2022/02/24 06:12:30;;;;;;;;;;;;;;;2.70;79.92;96576.56;5002474;28;19981;-78
2022/02/24 06:14:56;;;;;;;;;;;;;;;2.69;79.83;96574.94;5002824;28;19957;-78
2022/02/24 06:17:22;;;;;;;;;;;;;;;2.66;79.77;96576.06;5004564;28;19954;-78
2022/02/24 06:19:48;;;;;;;;;;;;;;;2.66;79.75;96575.28;4999806;28;20040;-76
2022/02/24 06:22:14;;;;;;;;;;;;;;;2.65;79.78;96584.84;5005507;28;20328;-77
2022/02/24 06:24:40;;;;;;;;;;;;;;;2.63;80.11;96579.00;5012728;28;19958;-76
2022/02/24 06:27:05;;;;;;;;;;;;;;;2.63;79.94;96584.19;5002902;28;20010;-75
2022/02/24 06:29:31;;;;;;;;;;;;;;;2.63;80.02;96582.41;5006408;28;19954;-76
2022/02/24 06:31:57;;;;;;;;;;;;;;;2.64;80.30;96576.22;4990155;28;20021;-76
2022/02/24 06:34:23;;;;;;;;;;;;;;;2.65;80.53;96574.47;5011233;28;19959;-76
2022/02/24 06:36:49;;;;;;;;;;;;;;;2.67;80.45;96569.09;5007678;28;19954;-76
2022/02/24 06:39:16;;;;;;;;;;;;;;;2.69;80.81;96567.16;4987313;28;20278;-75
2022/02/24 06:41:42;;;;;;;;;;;;;;;2.70;81.55;96567.00;5008076;28;19961;-77
2022/02/24 06:44:09;;;;;;;;;;;;;;;2.73;81.65;96563.28;5005261;28;19988;-76
2022/02/24 06:46:35;;;;;;;;;;;;;;;2.75;82.16;96567.34;5008781;28;19957;-75
2022/02/24 06:49:01;;;;;;;;;;;;;;;2.78;82.52;96561.81;5005786;28;19949;-76
2022/02/24 06:51:26;;;;;;;;;;;;;;;2.80;82.66;96548.72;5004593;28;19969;-76
2022/02/24 06:53:52;;;;;;;;;;;;;;;2.85;82.20;96551.59;5007657;28;19942;-76
2022/02/24 06:56:18;;;;;;;;;;;;;;;2.88;82.80;96551.28;5002004;28;19957;-77
2022/02/24 06:58:45;;;;;;;;;;;;;;;2.91;82.71;96548.34;5004975;28;19960;-77
2022/02/24 07:01:11;;;;;;;;;;;;;;;2.95;82.59;96543.63;5000599;28;19962;-77
2022/02/24 07:03:37;;;;;;;;;;;;;;;2.99;82.54;96550.91;5004292;28;20023;-76
2022/02/24 07:06:03;;;;;;;;;;;;;;;3.04;82.37;96551.22;5005187;28;20144;-76
2022/02/24 07:08:29;;;;;;;;;;;;;;;3.10;82.27;96557.50;5005284;28;19956;-76
2022/02/24 07:10:54;;;;;;;;;;;;;;;3.16;82.29;96550.84;5008977;28;20406;-76
2022/02/24 07:13:20;;;;;;;;;;;;;;;3.20;83.00;96552.13;5001795;28;20061;-76
2022/02/24 07:15:46;;;;;;;;;;;;;;;3.22;82.56;96545.00;5006281;28;19970;-76
2022/02/24 07:18:12;;;;;;;;;;;;;;;3.22;83.11;96545.00;5008819;28;19964;-76
2022/02/24 07:20:38;;;;;;;;;;;;;;;3.23;82.30;96539.66;5008124;28;19995;-76
2022/02/24 07:23:04;;;;;;;;;;;;;;;3.30;82.34;96541.53;5006520;28;19964;-76
2022/02/24 07:25:30;;;;;;;;;;;;;;;3.34;82.33;96540.22;5003932;28;20001;-76
2022/02/24 07:27:55;;;;;;;;;;;;;;;3.44;83.28;96536.47;5005653;28;20459;-75
2022/02/24 07:30:21;;;;;;;;;;;;;;;3.57;81.98;96535.91;5005349;28;20342;-75
2022/02/24 07:32:47;;;;;;;;;;;;;;;3.73;83.27;96531.56;5009687;28;19974;-75
2022/02/24 07:35:13;;;;;;;;;;;;;;;3.87;81.50;96528.25;5006848;28;20026;-75
2022/02/24 07:37:39;;;;;;;;;;;;;;;4.02;80.87;96517.91;5000539;28;19948;-75
2022/02/24 07:40:05;;;;;;;;;;;;;;;4.22;80.54;96518.22;5003095;28;19972;-75
2022/02/24 07:42:34;;;;;;;;;;;;;;;4.46;79.92;96519.78;5012284;28;20532;-74
2022/02/24 07:45:00;;;;;;;;;;;;;;;4.61;78.47;96518.00;5001602;28;19978;-76
2022/02/24 07:47:26;;;;;;;;;;;;;;;4.92;83.70;96524.03;5010695;28;19987;-77
2022/02/24 07:49:52;;;;;;;;;;;;;;;5.58;82.35;96521.38;5014775;28;20395;-77
2022/02/24 07:52:18;;;;;;;;;;;;;;;6.17;75.68;96489.13;5006635;28;19980;-76
2022/02/24 07:54:44;;;;;;;;;;;;;;;6.38;72.88;96483.06;5004545;28;19955;-77
2022/02/24 07:57:10;;;;;;;;;;;;;;;6.37;72.27;96481.47;5011051;28;19956;-76
2022/02/24 07:59:36;;;;;;;;;;;;;;;6.52;72.31;96487.38;4983203;28;19956;-77
2022/02/24 08:02:02;;;;;;;;;;;;;;;6.71;71.24;96470.25;5005634;28;20026;-78
2022/02/24 08:04:28;;;;;;;;;;;;;;;6.78;70.60;96462.44;5014979;28;20404;-77
2022/02/24 08:06:54;;;;;;;;;;;;;;;6.73;70.63;96463.03;5004316;28;20018;-77
2022/02/24 08:09:19;;;;;;;;;;;;;;;6.77;70.07;96445.22;4990822;28;20007;-77
2022/02/24 08:12:38;;;;;;;;;;;;;;;6.82;69.99;96450.63;5005545;28;20300;-78
2022/02/24 08:14:31;;;;;;;;;;;;;;;6.90;70.03;96440.84;5004285;28;20357;-77
2022/02/24 08:16:57;;;;;;;;;;;;;;;7.00;68.79;96426.66;4990558;28;19954;-77
2022/02/24 08:19:23;;;;;;;;;;;;;;;6.84;69.29;96433.00;5004291;28;20013;-77
2022/02/24 08:21:49;;;;;;;;;;;;;;;6.77;69.95;96440.81;5001867;28;20398;-78
2022/02/24 08:24:14;;;;;;;;;;;;;;;6.86;70.12;96441.44;5001617;28;19963;-78
2022/02/24 08:26:40;;;;;;;;;;;;;;;6.89;70.03;96428.81;5004852;28;19952;-77
2022/02/24 08:29:06;;;;;;;;;;;;;;;7.06;70.54;96433.69;5007582;28;19967;-78
2022/02/24 08:31:32;;;;;;;;;;;;;;;7.34;68.62;96402.25;5005281;28;19958;-77
2022/02/24 08:33:58;;;;;;;;;;;;;;;7.80;68.76;96413.75;5001238;28;20028;-79
2022/02/24 08:36:24;;;;;;;;;;;;;;;8.17;67.46;96394.06;5013831;28;20069;-78
2022/02/24 08:38:50;;;;;;;;;;;;;;;8.59;66.44;96383.28;4982624;28;20345;-78
2022/02/24 08:41:16;;;;;;;;;;;;;;;8.97;66.55;96383.38;4995866;28;20004;-78
2022/02/24 08:43:42;;;;;;;;;;;;;;;9.20;62.90;96340.97;5007114;28;19982;-78
2022/02/24 08:46:08;;;;;;;;;;;;;;;9.29;64.59;96363.25;4995276;28;19965;-78
2022/02/24 08:48:34;;;;;;;;;;;;;;;9.35;61.90;96324.97;5001170;28;20370;-78
2022/02/24 08:51:00;;;;;;;;;;;;;;;9.45;64.06;96361.13;5013776;28;19958;-77
2022/02/24 08:53:26;;;;;;;;;;;;;;;9.47;62.06;96343.38;4983166;28;19970;-77
2022/02/24 08:55:52;;;;;;;;;;;;;;;9.55;64.70;96364.88;5015614;28;20339;-77
2022/02/24 08:58:18;;;;;;;;;;;;;;;9.59;63.44;96357.38;4988980;28;20077;-76
2022/02/24 09:00:47;;;;;;;;;;;;;;;9.63;61.67;96334.22;4988036;28;20051;-78
2022/02/24 09:03:14;;;;;;;;;;;;;;;9.71;62.57;96342.59;4982162;28;20462;-78
2022/02/24 09:05:41;;;;;;;;;;;;;;;9.51;63.00;96345.38;4979203;28;20326;-78
2022/02/24 09:08:07;;;;;;;;;;;;;;;9.24;64.19;96357.03;5004148;28;19961;-78
2022/02/24 09:10:33;;;;;;;;;;;;;;;8.96;63.91;96354.78;5015601;28;20299;-78
2022/02/24 09:12:59;;;;;;;;;;;;;;;8.81;64.55;96353.25;5002343;28;20452;-78
2022/02/24 09:15:26;;;;;;;;;;;;;;;8.74;64.94;96355.09;5003546;28;20413;-78
2022/02/24 09:17:52;;;;;;;;;;;;;;;8.68;64.89;96356.72;5005546;28;19946;-78
2022/02/24 09:20:18;;;;;;;;;;;;;;;8.59;65.72;96363.22;5005881;28;20373;-78
2022/02/24 09:22:44;;;;;;;;;;;;;;;8.50;66.52;96362.66;5007715;28;20442;-78
2022/02/24 09:25:09;;;;;;;;;;;;;;;8.43;66.48;96353.22;5006056;28;20063;-78
2022/02/24 09:27:36;;;;;;;;;;;;;;;8.39;67.63;96372.88;4994508;28;20318;-78
2022/02/24 09:30:06;;;;;;;;;;;;;;;8.45;67.91;96374.72;4993185;28;20339;-78
2022/02/24 09:32:34;;;;;;;;;;;;;;;8.50;67.18;96359.22;4977072;28;19970;-78
2022/02/24 09:35:00;;;;;;;;;;;;;;;8.55;68.38;96367.25;5008551;28;19953;-76
2022/02/24 09:37:26;;;;;;;;;;;;;;;8.57;68.51;96367.84;4995966;28;19950;-79
2022/02/24 09:39:52;;;;;;;;;;;;;;;8.59;68.22;96355.38;5002837;28;19961;-78
2022/02/24 09:42:19;;;;;;;;;;;;;;;8.56;68.81;96368.84;5003699;28;20320;-78
2022/02/24 09:44:45;;;;;;;;;;;;;;;8.65;69.04;96362.38;5000149;28;19987;-79
2022/02/24 09:47:11;;;;;;;;;;;;;;;8.73;67.97;96351.69;4981243;28;19969;-79
2022/02/24 09:49:39;;;;;;;;;;;;;;;8.70;68.35;96352.09;5019497;28;19956;-78
2022/02/24 09:52:05;;;;;;;;;;;;;;;8.80;69.66;96361.28;5009746;28;19968;-79
2022/02/24 09:54:31;;;;;;;;;;;;;;;9.00;67.78;96338.47;4989275;28;19960;-78
2022/02/24 09:56:57;;;;;;;;;;;;;;;9.18;67.95;96327.28;5007625;28;19979;-79
2022/02/24 09:59:24;;;;;;;;;;;;;;;9.37;67.13;96322.94;5004349;28;19960;-78
2022/02/24 10:01:50;;;;;;;;;;;;;;;9.55;64.04;96282.91;5011431;28;19951;-78
2022/02/24 10:04:16;;;;;;;;;;;;;;;9.77;63.53;96272.06;4980781;28;19962;-78
2022/02/24 10:06:43;;;;;;;;;;;;;;;9.92;61.43;96249.72;5012958;28;19964;-78
2022/02/24 10:09:09;;;;;;;;;;;;;;;10.05;63.71;96285.44;4998182;28;19954;-78
2022/02/24 10:11:36;;;;;;;;;;;;;;;10.22;62.90;96274.38;5010736;28;19956;-78
2022/02/24 10:14:04;;;;;;;;;;;;;;;10.45;63.13;96266.66;5006327;28;19983;-78
2022/02/24 10:16:31;;;;;;;;;;;;;;;10.66;62.90;96267.22;5004842;28;19963;-78
2022/02/24 10:19:09;;;;;;;;;;;;;;;10.82;62.29;96252.69;5006465;28;20434;-79
2022/02/24 10:21:35;;;;;;;;;;;;;;;10.96;61.69;96247.00;5005709;28;20329;-78
2022/02/24 10:24:00;;;;;;;;;;;;;;;11.09;61.67;96232.88;5006616;28;19962;-78
2022/02/24 10:26:28;;;;;;;;;;;;;;;11.19;60.73;96229.69;4980904;28;19962;-79
2022/02/24 10:28:54;;;;;;;;;;;;;;;11.33;60.35;96217.16;5013148;28;19955;-79
2022/02/24 10:31:21;;;;;;;;;;;;;;;11.50;60.90;96218.06;4997801;28;19965;-80
2022/02/24 10:33:49;;;;;;;;;;;;;;;11.71;57.98;96179.91;5016552;28;19970;-78
2022/02/24 10:36:21;;;;;;;;;;;;;;;11.92;56.50;96154.06;5001669;28;20313;-78
2022/02/24 10:38:47;;;;;;;;;;;;;;;11.89;56.07;96165.84;5001166;28;19963;-79
2022/02/24 10:41:25;;;;;;;;;;;;;;;11.92;55.01;96149.59;5005345;28;20343;-78
2022/02/24 10:43:51;;;;;;;;;;;;;;;12.05;53.79;96129.34;5015948;28;19980;-78
2022/02/24 10:46:17;;;;;;;;;;;;;;;12.12;52.84;96112.41;5010028;28;19963;-79
2022/02/24 10:48:54;;;;;;;;;;;;;;;12.18;52.94;96121.19;4981609;28;19968;-79
2022/02/24 10:51:30;;;;;;;;;;;;;;;12.27;50.81;96098.75;4990760;28;19957;-78
2022/02/24 10:54:03;;;;;;;;;;;;;;;12.43;53.31;96133.16;5000982;28;20064;-78
2022/02/24 10:56:30;;;;;;;;;;;;;;;12.29;50.20;96080.09;5008647;28;20449;-78
2022/02/24 10:58:56;;;;;;;;;;;;;;;12.27;52.81;96121.59;5014972;28;19957;-79
2022/02/24 11:01:23;;;;;;;;;;;;;;;12.20;48.52;96066.56;4998395;28;19955;-79
2022/02/24 11:04:05;;;;;;;;;;;;;;;12.28;49.39;96197.59;5006777;28;19952;-78
2022/02/24 11:06:36;;;;;;;;;;;;;;;12.47;50.37;96215.81;5003196;28;19950;-79
2022/02/24 11:09:03;;;;;;;;;;;;;;;12.62;45.90;96183.72;5016068;28;19966;-79
2022/02/24 11:11:31;;;;;;;;;;;;;;;12.64;44.83;96193.00;5002864;28;19947;-78
2022/02/24 11:13:59;;;;;;;;;;;;;;;12.89;46.82;96224.22;5007235;28;19971;-78
2022/02/24 11:16:26;;;;;;;;;;;;;;;13.15;45.71;96220.16;5003350;28;19983;-78
2022/02/24 11:18:52;;;;;;;;;;;;;;;13.38;45.19;96226.34;5003174;28;19951;-78
2022/02/24 11:21:19;;;;;;;;;;;;;;;13.36;43.86;96231.03;5011457;28;19950;-79
2022/02/24 11:23:46;;;;;;;;;;;;;;;13.47;45.43;96243.31;5005963;28;19969;-79
2022/02/24 11:26:18;;;;;;;;;;;;;;;13.52;44.39;96253.94;5003030;28;20355;-80
2022/02/24 11:28:53;;;;;;;;;;;;;;;13.69;43.65;96239.94;4990602;28;19957;-79
2022/02/24 11:31:23;;;;;;;;;;;;;;;13.75;42.79;96238.97;5010537;28;19958;-78
2022/02/24 11:33:53;;;;;;;;;;;;;;;13.85;43.80;96254.91;4991276;28;19964;-79
2022/02/24 11:36:20;;;;;;;;;;;;;;;14.01;44.26;96246.19;5005196;28;19950;-79
2022/02/24 11:39:04;;;;;;;;;;;;;;;14.19;44.99;96239.00;4996719;28;19965;-78
2022/02/24 11:41:30;;;;;;;;;;;;;;;14.11;42.66;96237.59;5011796;28;19953;-78
2022/02/24 11:43:56;;;;;;;;;;;;;;;13.96;43.59;96240.03;5009109;28;20017;-78
2022/02/24 11:46:22;;;;;;;;;;;;;;;13.91;44.31;96229.44;4962997;28;19967;-79
2022/02/24 11:48:50;;;;;;;;;;;;;;;13.97;43.42;96225.81;5004959;28;20054;-79
2022/02/24 11:51:19;;;;;;;;;;;;;;;13.87;42.83;96238.88;5009427;28;19957;-77
2022/02/24 11:53:51;;;;;;;;;;;;;;;13.73;43.85;96241.84;5005824;28;20346;-79
2022/02/24 11:56:18;;;;;;;;;;;;;;;13.60;42.21;96232.44;5004022;28;19960;-79
2022/02/24 11:58:50;;;;;;;;;;;;;;;13.55;43.03;96227.09;5002483;28;19959;-79
2022/02/24 12:01:25;;;;;;;;;;;;;;;13.39;42.81;96227.91;5000551;28;19950;-79
2022/02/24 12:03:56;;;;;;;;;;;;;;;13.31;43.37;96215.16;5001501;28;19958;-79
2022/02/24 12:06:37;;;;;;;;;;;;;;;13.24;43.60;96215.28;5005971;28;19964;-79
2022/02/24 12:09:10;;;;;;;;;;;;;;;13.16;43.50;96215.69;5001086;28;19948;-79
2022/02/24 12:11:39;;;;;;;;;;;;;;;13.11;45.28;96216.41;4983467;28;20451;-79
2022/02/24 12:14:25;;;;;;;;;;;;;;;13.11;44.67;96218.25;5003420;28;19978;-79
2022/02/24 12:17:00;;;;;;;;;;;;;;;13.02;44.57;96209.94;4998211;28;20295;-78
2022/02/24 12:19:44;;;;;;;;;;;;;;;12.93;43.15;96214.78;4988615;28;19956;-79
2022/02/24 12:22:15;;;;;;;;;;;;;;;12.88;44.93;96208.66;5000419;28;19957;-79
2022/02/24 12:24:41;;;;;;;;;;;;;;;12.84;45.09;96210.16;4986929;28;19961;-77
2022/02/24 12:27:40;;;;;;;;;;;;;;;12.75;45.11;96200.03;4997760;28;19987;-79
2022/02/24 12:30:09;;;;;;;;;;;;;;;12.69;45.17;96210.72;4957204;28;19972;-80
2022/02/24 12:32:38;;;;;;;;;;;;;;;12.59;44.61;96201.59;4990063;28;19970;-78
2022/02/24 12:35:05;;;;;;;;;;;;;;;12.64;46.62;96200.09;5001467;28;20422;-79
2022/02/24 12:37:33;;;;;;;;;;;;;;;12.67;44.57;96186.47;5004453;28;19955;-79
2022/02/24 12:40:01;;;;;;;;;;;;;;;12.64;44.32;96184.28;5001994;28;19954;-78
2022/02/24 12:42:28;;;;;;;;;;;;;;;12.52;43.86;96187.00;4997515;28;19962;-78
2022/02/24 12:44:54;;;;;;;;;;;;;;;12.47;44.87;96186.91;5014444;28;19984;-78
2022/02/24 12:47:20;;;;;;;;;;;;;;;12.45;44.47;96188.97;4997774;28;20085;-77
2022/02/24 12:49:52;;;;;;;;;;;;;;;12.35;44.75;96186.97;4997708;28;20046;-77
2022/02/24 12:52:19;;;;;;;;;;;;;;;12.27;44.71;96196.03;4986757;28;19955;-78
2022/02/24 12:54:45;;;;;;;;;;;;;;;12.24;44.41;96193.06;5014826;28;20298;-78